createdAt,value
2019-01-29T00:01:30.049Z,79.37
2019-01-29T00:04:04.104Z,79.75
2019-01-29T00:06:33.301Z,79.09
2019-01-29T00:09:02.590Z,78.16
2019-01-29T00:11:32.837Z,78.31
2019-01-29T00:14:01.940Z,78.56
2019-01-29T00:16:33.724Z,78.90
2019-01-29T00:19:03.035Z,78.24
2019-01-29T00:21:32.586Z,78.61
2019-01-29T00:24:04.052Z,79.13
2019-01-29T00:26:38.857Z,78.03
2019-01-29T00:29:08.900Z,78.98
2019-01-29T00:31:42.110Z,79.18
2019-01-29T00:34:11.272Z,78.64
2019-01-29T00:36:40.956Z,77.77
2019-01-29T00:39:11.566Z,78.19
2019-01-29T00:41:41.415Z,77.72
2019-01-29T00:44:10.508Z,78.22
2019-01-29T00:46:39.810Z,77.71
2019-01-29T00:49:09.111Z,77.07
2019-01-29T00:51:44.446Z,75.68
2019-01-29T00:54:13.535Z,76.62
2019-01-29T00:56:45.045Z,77.47
2019-01-29T00:59:22.599Z,76.79
2019-01-29T01:01:51.737Z,77.75
2019-01-29T01:04:21.672Z,78.74
2019-01-29T01:06:50.819Z,77.21
2019-01-29T01:09:20.085Z,78.06
2019-01-29T01:11:49.228Z,77.57
2019-01-29T01:14:21.554Z,76.51
2019-01-29T01:16:51.151Z,76.83
2019-01-29T01:19:20.334Z,76.61
2019-01-29T01:21:51.715Z,76.80
2019-01-29T01:24:24.514Z,75.89
2019-01-29T01:27:03.219Z,75.28
2019-01-29T01:29:32.330Z,76.22
2019-01-29T01:32:04.013Z,75.40
2019-01-29T01:34:34.374Z,74.05
2019-01-29T01:37:09.791Z,74.92
2019-01-29T01:39:38.850Z,75.57
2019-01-29T01:42:07.953Z,74.79
2019-01-29T01:44:38.493Z,75.49
2019-01-29T01:47:13.549Z,76.88
2019-01-29T01:49:45.689Z,77.05
2019-01-29T01:52:20.488Z,77.32
2019-01-29T01:54:51.433Z,76.96
2019-01-29T02:00:14.655Z,76.60
2019-01-29T02:02:46.712Z,76.86
2019-01-29T02:05:16.197Z,76.82
2019-01-29T02:07:45.370Z,76.66
2019-01-29T02:10:22.416Z,76.28
2019-01-29T02:12:53.140Z,75.26
2019-01-29T02:15:22.415Z,76.66
2019-01-29T02:17:51.573Z,76.51
2019-01-29T02:20:21.017Z,77.16
2019-01-29T02:22:53.128Z,77.03
2019-01-29T02:25:32.976Z,77.63
2019-01-29T02:28:02.129Z,78.14
2019-01-29T02:30:31.205Z,77.27
2019-01-29T02:33:03.795Z,76.12
2019-01-29T02:35:36.068Z,76.24
2019-01-29T02:38:05.149Z,77.67
2019-01-29T02:40:39.188Z,78.73
2019-01-29T02:43:08.303Z,77.47
2019-01-29T02:45:37.401Z,77.54
2019-01-29T02:48:09.317Z,77.13
2019-01-29T02:50:38.440Z,76.93
2019-01-29T02:53:17.814Z,76.10
2019-01-29T02:55:38.636Z,77.58
2019-01-29T02:58:08.905Z,77.72
2019-01-29T03:00:40.513Z,76.88
2019-01-29T03:03:12.558Z,77.50
2019-01-29T03:05:49.663Z,78.47
2019-01-29T03:08:21.523Z,78.50
2019-01-29T03:10:52.713Z,78.31
2019-01-29T03:13:44.226Z,77.00
2019-01-29T03:16:13.564Z,77.01
2019-01-29T03:18:45.466Z,77.95
2019-01-29T03:21:20.962Z,77.71
2019-01-29T03:24:09.228Z,77.21
2019-01-29T03:26:38.444Z,76.89
2019-01-29T03:29:11.650Z,75.56
2019-01-29T03:31:41.249Z,76.09
2019-01-29T03:34:13.486Z,75.83
2019-01-29T03:36:45.334Z,74.70
2019-01-29T03:39:17.443Z,75.79
2019-01-29T03:41:52.604Z,76.54
2019-01-29T03:44:24.013Z,76.33
2019-01-29T03:46:55.854Z,75.16
2019-01-29T03:49:26.550Z,75.03
2019-01-29T03:51:55.775Z,75.06
2019-01-29T03:54:31.152Z,75.42
2019-01-29T03:57:00.415Z,75.88
2019-01-29T03:59:31.110Z,74.26
2019-01-29T04:02:00.302Z,74.42
2019-01-29T04:04:29.402Z,72.67
2019-01-29T04:06:59.966Z,74.55
2019-01-29T04:09:30.539Z,74.00
2019-01-29T04:12:04.125Z,73.92
2019-01-29T04:14:36.226Z,72.47
2019-01-29T04:17:08.620Z,73.28
2019-01-29T04:19:37.763Z,73.42
2019-01-29T04:22:07.170Z,74.27
2019-01-29T04:24:43.781Z,73.80
2019-01-29T04:27:12.999Z,75.35
2019-01-29T04:29:42.134Z,75.28
2019-01-29T04:32:12.520Z,75.09
2019-01-29T04:34:43.923Z,75.27
2019-01-29T04:37:13.191Z,75.33
2019-01-29T04:39:42.398Z,75.15
2019-01-29T04:42:13.491Z,75.49
2019-01-29T04:44:42.653Z,75.98
2019-01-29T04:47:15.372Z,76.58
2019-01-29T04:49:50.957Z,76.36
2019-01-29T04:52:22.889Z,76.69
2019-01-29T04:54:53.346Z,77.36
2019-01-29T04:57:23.033Z,77.44
2019-01-29T04:59:54.355Z,77.97
2019-01-29T05:02:26.668Z,78.09
2019-01-29T05:04:57.152Z,78.67
2019-01-29T05:07:26.712Z,78.27
2019-01-29T05:09:57.727Z,78.39
2019-01-29T05:12:29.423Z,77.60
2019-01-29T05:15:03.638Z,77.92
2019-01-29T05:17:55.913Z,78.61
2019-01-29T05:20:28.281Z,78.65
2019-01-29T05:22:57.718Z,77.79
2019-01-29T05:25:27.262Z,78.14
2019-01-29T05:27:59.320Z,76.43
2019-01-29T05:30:28.583Z,76.32
2019-01-29T05:32:57.721Z,76.13
2019-01-29T05:35:26.809Z,76.66
2019-01-29T05:37:59.194Z,76.34
2019-01-29T05:40:30.663Z,76.47
2019-01-29T05:43:03.416Z,75.51
2019-01-29T05:45:33.634Z,76.33
2019-01-29T05:48:08.954Z,76.39
2019-01-29T05:50:39.319Z,76.38
2019-01-29T05:53:09.899Z,76.30
2019-01-29T05:55:40.146Z,76.56
2019-01-29T05:58:09.231Z,75.33
2019-01-29T06:00:40.707Z,76.00
2019-01-29T06:03:12.516Z,74.80
2019-01-29T06:05:42.327Z,75.84
2019-01-29T06:08:11.724Z,75.75
2019-01-29T06:10:41.941Z,75.44
2019-01-29T06:13:16.613Z,75.92
2019-01-29T06:15:48.401Z,74.52
2019-01-29T06:18:22.342Z,75.42
2019-01-29T06:20:54.647Z,75.38
2019-01-29T06:23:26.823Z,75.98
2019-01-29T06:25:57.279Z,76.25
2019-01-29T06:28:30.072Z,76.76
2019-01-29T06:30:59.385Z,77.10
2019-01-29T06:33:34.174Z,77.33
2019-01-29T06:36:05.582Z,77.11
2019-01-29T06:38:34.717Z,77.18
2019-01-29T06:41:03.968Z,77.16
2019-01-29T06:43:33.339Z,76.95
2019-01-29T06:46:02.477Z,75.47
2019-01-29T06:48:31.596Z,74.83
2019-01-29T06:51:02.679Z,75.61
2019-01-29T06:53:36.507Z,76.17
2019-01-29T06:56:06.227Z,75.85
2019-01-29T06:58:35.480Z,75.98
2019-01-29T07:01:14.060Z,76.80
2019-01-29T07:03:50.739Z,76.66
2019-01-29T07:06:19.867Z,76.52
2019-01-29T07:08:49.022Z,76.61
2019-01-29T07:11:18.151Z,75.49
2019-01-29T07:13:47.326Z,74.87
2019-01-29T07:16:34.937Z,75.49
2019-01-29T07:19:24.243Z,74.49
2019-01-29T07:21:53.342Z,73.06
2019-01-29T07:24:28.646Z,74.25
2019-01-29T07:26:55.484Z,75.71
2019-01-29T07:29:24.927Z,76.10
2019-01-29T07:31:56.790Z,75.62
2019-01-29T07:34:26.139Z,75.33
2019-01-29T07:36:57.010Z,71.67
2019-01-29T07:39:29.144Z,71.42
2019-01-29T07:41:59.948Z,70.68
2019-01-29T07:44:29.257Z,67.78
2019-01-29T07:47:00.362Z,67.64
2019-01-29T07:49:36.554Z,68.05
2019-01-29T07:52:06.048Z,66.66
2019-01-29T07:54:35.223Z,66.36
2019-01-29T07:57:04.388Z,67.53
2019-01-29T07:59:33.498Z,65.94
2019-01-29T08:02:07.634Z,65.16
2019-01-29T08:04:40.500Z,66.18
2019-01-29T08:07:10.906Z,65.87
2019-01-29T08:09:44.351Z,63.07
2019-01-29T08:12:22.599Z,63.41
2019-01-29T08:14:55.337Z,64.85
2019-01-29T08:17:24.691Z,66.81
2019-01-29T08:19:58.871Z,65.23
2019-01-29T08:22:28.137Z,68.09
2019-01-29T08:25:01.825Z,67.69
2019-01-29T08:27:28.525Z,68.38
2019-01-29T08:30:01.159Z,69.98
2019-01-29T08:32:31.754Z,69.81
2019-01-29T08:35:26.849Z,71.16
2019-01-29T08:37:57.554Z,74.29
2019-01-29T08:40:27.074Z,73.82
2019-01-29T08:42:58.938Z,73.50
2019-01-29T08:45:31.470Z,73.63
2019-01-29T08:48:01.524Z,73.24
2019-01-29T08:50:34.526Z,71.70
2019-01-29T08:53:10.883Z,72.43
2019-01-29T08:55:45.223Z,70.89
2019-01-29T08:58:16.830Z,71.69
2019-01-29T09:00:46.365Z,71.45
2019-01-29T09:03:19.111Z,72.56
2019-01-29T09:05:52.493Z,73.08
2019-01-29T09:08:27.067Z,73.94
2019-01-29T09:10:58.038Z,73.30
2019-01-29T09:13:27.211Z,74.54
2019-01-29T09:15:57.713Z,75.55
2019-01-29T09:18:34.352Z,75.44
2019-01-29T09:21:03.875Z,75.33
2019-01-29T09:23:35.142Z,74.19
2019-01-29T09:26:04.534Z,73.17
2019-01-29T09:28:33.967Z,74.39
2019-01-29T09:31:08.743Z,74.04
2019-01-29T09:33:37.854Z,73.60
2019-01-29T09:36:07.261Z,74.35
2019-01-29T09:38:36.635Z,74.87
2019-01-29T09:41:08.884Z,73.65
2019-01-29T09:43:39.191Z,73.54
2019-01-29T09:46:08.339Z,73.15
2019-01-29T09:48:37.434Z,72.54
2019-01-29T09:51:07.039Z,71.27
2019-01-29T09:53:42.832Z,70.98
2019-01-29T09:56:10.459Z,68.64
2019-01-29T09:58:39.899Z,68.04
2019-01-29T10:01:12.852Z,68.24
2019-01-29T10:03:42.413Z,67.59
2019-01-29T10:06:11.540Z,69.36
2019-01-29T10:08:40.665Z,70.54
2019-01-29T10:11:09.750Z,69.85
2019-01-29T10:13:39.199Z,71.73
2019-01-29T10:16:12.622Z,69.02
2019-01-29T10:18:42.629Z,69.71
2019-01-29T10:21:22.940Z,71.49
2019-01-29T10:23:52.215Z,71.10
2019-01-29T10:26:22.776Z,70.53
2019-01-29T10:28:57.006Z,71.06
2019-01-29T10:31:32.435Z,69.89
2019-01-29T10:34:01.509Z,69.04
2019-01-29T10:36:30.628Z,68.61
2019-01-29T10:39:00.875Z,68.93
2019-01-29T10:41:33.325Z,69.36
2019-01-29T10:44:02.544Z,67.08
2019-01-29T10:46:31.869Z,68.67
2019-01-29T10:49:02.558Z,69.37
2019-01-29T10:51:36.560Z,69.66
2019-01-29T10:54:09.991Z,69.68
2019-01-29T10:56:39.311Z,68.81
2019-01-29T10:59:11.154Z,68.30
2019-01-29T11:01:40.507Z,69.07
2019-01-29T11:04:10.078Z,69.26
2019-01-29T11:06:46.657Z,68.30
2019-01-29T11:09:25.356Z,69.28
2019-01-29T11:11:52.966Z,69.02
2019-01-29T11:14:22.347Z,66.69
2019-01-29T11:16:51.461Z,63.84
2019-01-29T11:19:20.665Z,63.73
2019-01-29T11:21:53.649Z,66.09
2019-01-29T11:24:23.096Z,64.72
2019-01-29T11:27:00.050Z,62.48
2019-01-29T11:29:30.035Z,63.36
2019-01-29T11:32:02.255Z,62.64
2019-01-29T11:34:31.331Z,64.29
2019-01-29T11:37:00.432Z,65.04
2019-01-29T11:39:38.934Z,62.44
2019-01-29T11:42:09.775Z,61.97
2019-01-29T11:44:50.729Z,62.71
2019-01-29T11:47:29.234Z,63.11
2019-01-29T11:49:58.524Z,62.81
2019-01-29T11:52:28.827Z,64.04
2019-01-29T11:55:02.632Z,67.59
2019-01-29T11:57:36.635Z,65.57
2019-01-29T12:00:11.466Z,65.76
2019-01-29T12:02:40.600Z,65.39
2019-01-29T12:05:09.866Z,64.10
2019-01-29T12:07:40.660Z,66.61
2019-01-29T12:10:10.122Z,63.65
2019-01-29T12:12:46.163Z,66.42
2019-01-29T12:15:16.241Z,66.91
2019-01-29T12:17:49.294Z,68.25
2019-01-29T12:20:18.694Z,69.00
2019-01-29T12:22:53.123Z,68.37
2019-01-29T12:25:24.111Z,67.62
2019-01-29T12:27:53.238Z,66.58
2019-01-29T12:30:22.798Z,65.97
2019-01-29T12:32:54.356Z,65.52
2019-01-29T12:35:23.952Z,62.64
2019-01-29T12:37:56.463Z,62.42
2019-01-29T12:40:27.322Z,61.62
2019-01-29T12:43:03.433Z,62.58
2019-01-29T12:45:54.089Z,62.78
2019-01-29T12:48:23.223Z,62.07
2019-01-29T12:51:00.409Z,62.15
2019-01-29T12:53:35.831Z,60.39
2019-01-29T12:56:05.473Z,58.30
2019-01-29T12:58:36.102Z,58.31
2019-01-29T13:01:12.689Z,58.38
2019-01-29T13:03:42.075Z,58.38
2019-01-29T13:06:14.931Z,57.19
2019-01-29T13:08:47.410Z,57.92
2019-01-29T13:11:18.273Z,58.79
2019-01-29T13:13:51.081Z,57.39
2019-01-29T13:16:27.765Z,56.77
2019-01-29T13:19:00.748Z,57.84
2019-01-29T13:21:30.165Z,57.24
2019-01-29T13:23:59.768Z,57.01
2019-01-29T13:26:30.365Z,55.44
2019-01-29T13:28:59.588Z,55.34
2019-01-29T13:31:31.755Z,55.20
2019-01-29T13:34:10.278Z,53.43
2019-01-29T13:37:07.432Z,53.57
2019-01-29T13:39:18.992Z,54.33
2019-01-29T13:41:49.051Z,53.12
2019-01-29T13:44:21.322Z,54.32
2019-01-29T13:46:50.554Z,54.74
2019-01-29T13:49:19.727Z,53.48
2019-01-29T13:51:49.101Z,53.85
2019-01-29T13:54:18.303Z,54.14
2019-01-29T13:56:51.439Z,53.08
2019-01-29T13:59:20.781Z,53.16
2019-01-29T14:01:50.117Z,53.22
2019-01-29T14:04:20.250Z,53.17
2019-01-29T14:06:52.249Z,55.42
2019-01-29T14:09:23.923Z,54.77
2019-01-29T14:11:53.095Z,55.76
2019-01-29T14:14:22.229Z,55.46
2019-01-29T14:16:53.231Z,55.79
2019-01-29T14:19:23.570Z,53.79
2019-01-29T14:21:54.504Z,53.35
2019-01-29T14:24:26.228Z,52.85
2019-01-29T14:26:55.732Z,53.22
2019-01-29T14:29:27.412Z,53.01
2019-01-29T14:31:59.119Z,52.65
2019-01-29T14:34:36.487Z,53.17
2019-01-29T14:37:09.250Z,52.90
2019-01-29T14:40:26.688Z,53.25
2019-01-29T14:42:55.888Z,50.81
2019-01-29T14:45:28.065Z,51.50
2019-01-29T14:47:58.281Z,50.83
2019-01-29T14:50:30.123Z,50.28
2019-01-29T14:52:59.185Z,50.86
2019-01-29T14:55:40.851Z,51.81
2019-01-29T14:58:13.101Z,52.04
2019-01-29T15:00:49.562Z,52.60
2019-01-29T15:03:24.183Z,51.76
2019-01-29T15:06:00.998Z,52.90
2019-01-29T15:08:32.856Z,51.03
2019-01-29T15:11:03.993Z,49.40
2019-01-29T15:13:35.523Z,49.11
2019-01-29T15:16:22.824Z,48.79
2019-01-29T15:18:56.661Z,47.43
2019-01-29T15:21:26.628Z,49.08
2019-01-29T15:23:56.322Z,49.32
2019-01-29T15:26:29.955Z,50.06
2019-01-29T15:29:00.154Z,48.44
2019-01-29T15:31:31.266Z,50.09
2019-01-29T15:34:01.485Z,49.03
2019-01-29T15:36:33.479Z,49.18
2019-01-29T15:39:02.883Z,50.17
2019-01-29T15:41:32.690Z,50.23
2019-01-29T15:44:04.331Z,51.33
2019-01-29T15:46:37.834Z,51.55
2019-01-29T15:49:10.582Z,50.97
2019-01-29T15:51:42.877Z,50.78
2019-01-29T15:54:14.472Z,51.23
2019-01-29T15:56:43.828Z,51.74
2019-01-29T15:59:14.366Z,53.10
2019-01-29T16:01:46.510Z,53.26
2019-01-29T16:04:15.794Z,53.12
2019-01-29T16:06:45.284Z,53.35
2019-01-29T16:09:17.524Z,52.57
2019-01-29T16:11:46.647Z,53.66
2019-01-29T16:14:19.631Z,52.51
2019-01-29T16:16:48.767Z,53.58
2019-01-29T16:19:18.064Z,53.93
2019-01-29T16:21:47.177Z,54.35
2019-01-29T16:24:16.319Z,54.77
2019-01-29T16:26:49.345Z,54.30
2019-01-29T16:29:18.581Z,54.44
2019-01-29T16:31:47.678Z,54.76
2019-01-29T16:34:16.768Z,55.89
2019-01-29T16:36:47.095Z,55.16
2019-01-29T16:39:24.397Z,54.67
2019-01-29T16:42:10.800Z,54.99
2019-01-29T16:44:40.271Z,54.11
2019-01-29T16:47:12.275Z,54.18
2019-01-29T16:49:42.880Z,54.90
2019-01-29T16:52:12.165Z,55.55
2019-01-29T16:54:41.245Z,56.09
2019-01-29T16:57:13.828Z,56.33
2019-01-29T16:59:45.664Z,56.07
2019-01-29T17:02:23.470Z,57.05
2019-01-29T17:04:52.554Z,57.76
2019-01-29T17:07:21.619Z,58.98
2019-01-29T17:09:53.260Z,57.89
2019-01-29T17:12:25.442Z,59.24
2019-01-29T17:14:54.527Z,58.54
2019-01-29T17:17:23.728Z,59.47
2019-01-29T17:19:53.078Z,59.98
2019-01-29T17:22:22.211Z,59.36
2019-01-29T17:24:57.565Z,58.16
2019-01-29T17:27:26.840Z,59.83
2019-01-29T17:29:55.979Z,58.21
2019-01-29T17:32:30.449Z,57.47
2019-01-29T17:34:59.133Z,58.45
2019-01-29T17:37:29.967Z,59.17
2019-01-29T17:39:59.057Z,59.63
2019-01-29T17:42:35.278Z,59.91
2019-01-29T17:45:05.666Z,59.88
2019-01-29T17:47:35.885Z,59.30
2019-01-29T17:50:06.759Z,60.47
2019-01-29T17:52:36.986Z,59.92
2019-01-29T17:55:09.647Z,60.16
2019-01-29T17:57:50.361Z,60.50
2019-01-29T18:00:14.604Z,60.72
2019-01-29T18:02:44.839Z,60.93
2019-01-29T18:05:14.445Z,61.02
2019-01-29T18:07:46.613Z,61.33
2019-01-29T18:10:16.346Z,61.39
2019-01-29T18:12:50.228Z,61.30
2019-01-29T18:15:24.300Z,61.64
2019-01-29T18:17:53.617Z,61.51
2019-01-29T18:20:23.428Z,62.00
2019-01-29T18:22:56.312Z,62.19
2019-01-29T18:25:28.295Z,62.44
2019-01-29T18:28:01.218Z,62.73
2019-01-29T18:30:30.442Z,62.42
2019-01-29T18:33:00.499Z,62.59
2019-01-29T18:35:29.622Z,62.66
2019-01-29T18:37:58.799Z,62.93
2019-01-29T18:40:41.037Z,62.61
2019-01-29T18:43:01.941Z,62.58
2019-01-29T18:45:31.119Z,62.81
2019-01-29T18:48:01.081Z,64.42
2019-01-29T18:50:31.853Z,63.56
2019-01-29T18:53:01.007Z,63.12
2019-01-29T18:55:30.268Z,63.28
2019-01-29T18:58:11.204Z,63.38
2019-01-29T19:00:32.240Z,63.95
2019-01-29T19:03:04.974Z,64.46
2019-01-29T19:05:35.408Z,64.54
2019-01-29T19:08:06.256Z,64.60
2019-01-29T19:10:35.515Z,64.68
2019-01-29T19:13:06.725Z,64.39
2019-01-29T19:15:35.914Z,64.31
2019-01-29T19:18:06.343Z,64.40
2019-01-29T19:20:35.751Z,65.08
2019-01-29T19:23:06.274Z,65.42
2019-01-29T19:25:37.731Z,65.80
2019-01-29T19:28:06.875Z,66.11
2019-01-29T19:30:35.993Z,65.94
2019-01-29T19:33:05.444Z,66.46
2019-01-29T19:35:36.086Z,66.38
2019-01-29T19:38:05.409Z,66.60
2019-01-29T19:40:35.078Z,67.58
2019-01-29T19:43:04.255Z,66.90
2019-01-29T19:45:34.359Z,64.99
2019-01-29T19:48:07.370Z,66.06
2019-01-29T19:50:36.501Z,66.00
2019-01-29T19:53:14.359Z,64.64
2019-01-29T19:55:43.582Z,64.64
2019-01-29T19:58:12.985Z,63.80
2019-01-29T20:00:45.602Z,63.93
2019-01-29T20:03:16.822Z,64.14
2019-01-29T20:05:47.239Z,64.08
2019-01-29T20:08:18.963Z,63.78
2019-01-29T20:10:48.071Z,63.23
2019-01-29T20:13:17.221Z,63.42
2019-01-29T20:15:46.426Z,63.52
2019-01-29T20:18:15.896Z,64.62
2019-01-29T20:20:47.873Z,62.86
2019-01-29T20:23:19.635Z,62.82
2019-01-29T20:25:50.667Z,61.52
2019-01-29T20:28:20.325Z,63.09
2019-01-29T20:30:49.976Z,62.74
2019-01-29T20:33:22.042Z,62.32
2019-01-29T20:35:52.906Z,63.13
2019-01-29T20:38:35.211Z,61.05
2019-01-29T20:41:04.706Z,59.60
2019-01-29T20:43:34.033Z,59.05
2019-01-29T20:46:03.153Z,59.29
2019-01-29T20:48:33.386Z,59.57
2019-01-29T20:51:05.137Z,59.71
2019-01-29T20:53:34.813Z,59.37
2019-01-29T20:56:04.220Z,59.69
2019-01-29T20:58:33.305Z,59.92
2019-01-29T21:01:02.522Z,59.29
2019-01-29T21:03:32.628Z,60.21
2019-01-29T21:06:02.850Z,58.58
2019-01-29T21:08:32.271Z,59.09
2019-01-29T21:11:02.708Z,57.91
2019-01-29T21:13:33.843Z,58.20
2019-01-29T21:16:03.705Z,57.76
2019-01-29T21:18:33.939Z,58.17
2019-01-29T21:21:04.500Z,56.77
2019-01-29T21:23:33.803Z,58.09
2019-01-29T21:26:04.503Z,56.78
2019-01-29T21:28:33.700Z,58.05
2019-01-29T21:31:05.696Z,57.61
2019-01-29T21:33:38.045Z,57.77
2019-01-29T21:36:07.477Z,57.99
2019-01-29T21:38:37.661Z,58.68
2019-01-29T21:41:09.769Z,58.60
2019-01-29T21:43:46.089Z,59.00
2019-01-29T21:46:18.424Z,59.07
2019-01-29T21:48:47.591Z,59.11
2019-01-29T21:51:17.278Z,59.59
2019-01-29T21:53:51.492Z,59.89
2019-01-29T21:56:22.051Z,60.32
2019-01-29T21:58:53.942Z,60.46
2019-01-29T22:01:27.326Z,60.36
2019-01-29T22:03:56.560Z,60.28
2019-01-29T22:06:28.775Z,60.31
2019-01-29T22:08:57.934Z,59.87
2019-01-29T22:11:30.517Z,59.28
2019-01-29T22:14:00.973Z,58.67
2019-01-29T22:16:30.138Z,59.20
2019-01-29T22:19:01.224Z,60.84
2019-01-29T22:21:30.353Z,59.70
2019-01-29T22:23:59.468Z,58.51
2019-01-29T22:26:30.324Z,58.97
2019-01-29T22:28:59.531Z,58.05
2019-01-29T22:31:28.564Z,58.56
2019-01-29T22:33:57.749Z,57.81
2019-01-29T22:36:27.979Z,58.77
2019-01-29T22:39:01.726Z,58.85
2019-01-29T22:41:32.823Z,59.03
2019-01-29T22:44:03.235Z,59.00
2019-01-29T22:46:33.773Z,58.90
2019-01-29T22:49:06.426Z,60.14
2019-01-29T22:51:37.262Z,58.91
2019-01-29T22:54:07.499Z,59.06
2019-01-29T22:56:41.912Z,60.54
2019-01-29T22:59:11.076Z,60.77
2019-01-29T23:01:42.063Z,61.42
2019-01-29T23:04:16.736Z,60.75
2019-01-29T23:07:19.269Z,59.13
2019-01-29T23:09:48.755Z,59.31
2019-01-29T23:12:17.982Z,60.32
2019-01-29T23:14:48.617Z,61.64
2019-01-29T23:17:17.720Z,61.12
2019-01-29T23:19:48.212Z,60.24
2019-01-29T23:22:19.110Z,60.42
2019-01-29T23:24:48.251Z,60.30
2019-01-29T23:27:20.789Z,60.20
2019-01-29T23:29:50.120Z,59.95
2019-01-29T23:32:21.396Z,59.89
2019-01-29T23:34:55.111Z,59.90
2019-01-29T23:37:24.209Z,59.97
2019-01-29T23:39:55.933Z,59.25
2019-01-29T23:42:30.320Z,59.39
2019-01-29T23:44:59.420Z,59.77
2019-01-29T23:47:29.949Z,60.57
2019-01-29T23:49:59.203Z,57.84
2019-01-29T23:52:28.587Z,59.68
2019-01-29T23:54:59.774Z,58.51
2019-01-29T23:57:31.606Z,58.64
